Ashland, Missouri
Current Conditions -  °F | °C
As of 2:54 PM on Tuesday 25 Nov 2014 (Local Time) from KCOU Reporting Station
Clear Clear  
Wind Chill:   Ceiling: Unl
Heat Index:   Visibility: 10mi
Dew Point: -8°   Wind: 9mph
Humidity: 40%   Direction: 250°WSW
Pressure: 30.15"   Gusts: NA
Location:  38.77°N, 92.26°W
Report Text: KCOU 252054Z 25008KT 220V290 10SM CLR 04/M08 A3015 RMK AO2 SLP216 T00441083 56013
Loading
Personal Weather Stations






























Interactive Weather Map New forecast layout! Learn more

10-Day Weather Forecast

Advertisements
Track Severe Weather on mobile